Terminal Aerodrome Forecast
Issued by NWS

Home | Current Version | Previous Version | Text Only | Print | Product List | Glossary On
Versions: 1 2 3 4 5 6 7 8 9 10 11 12 13 14 15 16 17
000
FTUS46 KSGX 192136 AAA
TAFPSP
TAF AMD
KPSP 192136Z 1922/2018 32012G22KT P6SM SCT250
      TEMPO 1922/1923 11012G20KT
     FM192300 33022G32KT P6SM SCT070
     FM200300 32015G25KT P6SM SKC
     FM200800 31008KT P6SM SKC=

USA.gov is the U.S. government's official web portal to all federal, state and local government web resources and services.